This is the latest recevied weather packets stored in our database for station/object KJ7BRE-1. If no packets are shown the sender has not sent any weather packets the latest 10 day(s).
| Time | Temp. | Humidity | Pressure | Rain* | Wind** | Luminosity | Snow |
|---|---|---|---|---|---|---|---|
| 1788106817 | 17.22° C | 67% | 1019.6 hPa | 0 mm | - | - | - |
| 1788106515 | 17.22° C | 68% | 1019.6 hPa | 0 mm | - | - | - |
| 1788106213 | 17.22° C | 67% | 1019.6 hPa | 0 mm | - | - | - |
| 1788105912 | 16.67° C | 67% | 1019.6 hPa | 0 mm | - | - | - |
| 1788105611 | 16.67° C | 66% | 1020 hPa | 0 mm | - | - | - |
| 1788105310 | 17.22° C | 67% | 1019.6 hPa | 0 mm | - | - | - |
| 1788105007 | 16.67° C | 68% | 1019.6 hPa | 0 mm | - | - | - |
| 1788104706 | 16.67° C | 69% | 1019.6 hPa | 0 mm | - | - | - |
| 1788104405 | 15.56° C | 71% | 1019.6 hPa | 0 mm | - | - | - |
| 1788104104 | 15.56° C | 70% | 1019.6 hPa | 0 mm | - | - | - |
| 1788103802 | 16.11° C | 69% | 1019.6 hPa | 0 mm | - | - | - |
| 1788103501 | 16.67° C | 68% | 1020 hPa | 0 mm | - | - | - |
| 1788103200 | 16.11° C | 69% | 1019.6 hPa | 0 mm | - | - | - |
| 1788102898 | 15.56° C | 71% | 1020 hPa | 0 mm | - | - | - |
| 1788102597 | 14.44° C | 75% | 1019.6 hPa | 0 mm | - | - | - |
| 1788102296 | 13.89° C | 78% | 1020 hPa | 0 mm | - | - | - |
| 1788101995 | 13.33° C | 80% | 1019.6 hPa | 0 mm | - | - | - |
| 1788101693 | 12.78° C | 81% | 1019.6 hPa | 0 mm | - | - | - |
| 1788101392 | 12.22° C | 82% | 1020 hPa | 0 mm | - | - | - |
| 1788101091 | 12.22° C | 82% | 1020 hPa | 0 mm | - | - | - |
| 1788100790 | 12.22° C | 82% | 1020 hPa | 0 mm | - | - | - |
| 1788100488 | 12.22° C | 80% | 1020 hPa | 0 mm | - | - | - |
| 1788100186 | 11.67° C | 82% | 1020 hPa | 0 mm | - | - | - |
| 1788099885 | 11.11° C | 85% | 1019.6 hPa | 0 mm | - | - | - |
| 1788099583 | 10.56° C | 85% | 1020 hPa | 0 mm | - | - | - |
* Rain latest hour (hover to see other rain measurements)
** Current wind speed in m/s (hover to see current wind gust speed)